sensor_id;sensor_type;location;lat;lon;timestamp;pressure;altitude;pressure_sealevel;temperature;humidity
74578;BME280;63173;49.086;33.418;2022-11-04T00:00:14;100617.09;;;6.19;95.38
74578;BME280;63173;49.086;33.418;2022-11-04T02:33:24;100651.09;;;4.48;100.00
74578;BME280;63173;49.086;33.418;2022-11-04T02:38:54;100645.47;;;4.49;99.27
74578;BME280;63173;49.086;33.418;2022-11-04T02:41:41;100650.44;;;4.41;98.53
74578;BME280;63173;49.086;33.418;2022-11-04T02:44:34;100648.78;;;4.40;99.58
74578;BME280;63173;49.086;33.418;2022-11-04T02:47:09;100642.50;;;4.23;98.90
74578;BME280;63173;49.086;33.418;2022-11-04T02:49:54;100640.81;;;4.45;99.50
74578;BME280;63173;49.086;33.418;2022-11-04T02:52:57;100641.59;;;4.17;98.75
74578;BME280;63173;49.086;33.418;2022-11-04T02:55:30;100640.19;;;4.15;99.16
74578;BME280;63173;49.086;33.418;2022-11-04T02:58:01;100638.41;;;4.20;99.03
74578;BME280;63173;49.086;33.418;2022-11-04T03:00:30;100629.41;;;4.26;98.99
74578;BME280;63173;49.086;33.418;2022-11-04T03:02:59;100640.13;;;4.38;98.66
74578;BME280;63173;49.086;33.418;2022-11-04T03:05:32;100634.34;;;4.18;98.05
74578;BME280;63173;49.086;33.418;2022-11-04T03:08:01;100620.19;;;4.11;99.13
74578;BME280;63173;49.086;33.418;2022-11-04T03:10:41;100611.06;;;4.23;98.69
74578;BME280;63173;49.086;33.418;2022-11-04T03:13:13;100613.72;;;4.35;100.00
74578;BME280;63173;49.086;33.418;2022-11-04T03:15:47;100609.16;;;4.35;98.71
74578;BME280;63173;49.086;33.418;2022-11-04T03:21:18;100612.56;;;4.31;97.85
74578;BME280;63173;49.086;33.418;2022-11-04T03:23:44;100604.97;;;4.28;99.04
74578;BME280;63173;49.086;33.418;2022-11-04T03:26:25;100607.81;;;4.10;97.79
74578;BME280;63173;49.086;33.418;2022-11-04T03:32:22;100609.41;;;4.22;98.76
74578;BME280;63173;49.086;33.418;2022-11-04T03:34:52;100616.09;;;4.20;97.73
74578;BME280;63173;49.086;33.418;2022-11-04T03:37:18;100614.34;;;4.14;97.61
74578;BME280;63173;49.086;33.418;2022-11-04T03:39:43;100619.75;;;4.02;97.82
74578;BME280;63173;49.086;33.418;2022-11-04T03:42:10;100614.13;;;4.04;97.81
74578;BME280;63173;49.086;33.418;2022-11-04T03:47:13;100614.22;;;4.20;97.79
74578;BME280;63173;49.086;33.418;2022-11-04T03:49:39;100610.50;;;4.10;97.17
74578;BME280;63173;49.086;33.418;2022-11-04T03:52:04;100615.53;;;4.18;97.59
74578;BME280;63173;49.086;33.418;2022-11-04T03:54:30;100616.28;;;4.30;96.23
74578;BME280;63173;49.086;33.418;2022-11-04T03:57:26;100611.66;;;4.14;97.96
74578;BME280;63173;49.086;33.418;2022-11-04T04:00:13;100614.59;;;4.12;97.17
74578;BME280;63173;49.086;33.418;2022-11-04T04:08:52;100624.84;;;4.27;95.69
74578;BME280;63173;49.086;33.418;2022-11-04T04:11:40;100626.13;;;4.24;97.63
74578;BME280;63173;49.086;33.418;2022-11-04T04:16:39;100628.81;;;4.24;97.51
74578;BME280;63173;49.086;33.418;2022-11-04T04:19:10;100631.06;;;4.27;97.75
74578;BME280;63173;49.086;33.418;2022-11-04T04:21:45;100640.72;;;4.40;97.19
74578;BME280;63173;49.086;33.418;2022-11-04T04:24:14;100639.81;;;4.23;97.79
74578;BME280;63173;49.086;33.418;2022-11-04T04:27:00;100643.19;;;4.30;97.51
74578;BME280;63173;49.086;33.418;2022-11-04T04:29:46;100647.19;;;4.27;97.92
74578;BME280;63173;49.086;33.418;2022-11-04T04:32:13;100649.53;;;4.24;97.79
74578;BME280;63173;49.086;33.418;2022-11-04T04:34:39;100649.16;;;4.20;97.03
74578;BME280;63173;49.086;33.418;2022-11-04T04:37:08;100664.75;;;4.18;96.90
74578;BME280;63173;49.086;33.418;2022-11-04T04:39:38;100630.38;;;4.09;96.62
74578;BME280;63173;49.086;33.418;2022-11-04T04:42:24;100669.66;;;3.98;96.85
74578;BME280;63173;49.086;33.418;2022-11-04T04:45:09;100668.63;;;3.99;97.77
74578;BME280;63173;49.086;33.418;2022-11-04T04:47:44;100669.66;;;4.10;98.54
74578;BME280;63173;49.086;33.418;2022-11-04T04:50:15;100681.00;;;4.00;97.74
74578;BME280;63173;49.086;33.418;2022-11-04T04:52:47;100677.47;;;4.00;98.17
74578;BME280;63173;49.086;33.418;2022-11-04T04:55:14;100673.06;;;3.94;97.83
74578;BME280;63173;49.086;33.418;2022-11-04T04:57:40;100681.22;;;4.10;98.80
74578;BME280;63173;49.086;33.418;2022-11-04T05:00:07;100678.41;;;4.05;98.55
74578;BME280;63173;49.086;33.418;2022-11-04T05:02:34;100674.44;;;3.96;97.09
74578;BME280;63173;49.086;33.418;2022-11-04T05:04:59;100670.31;;;4.17;98.55
74578;BME280;63173;49.086;33.418;2022-11-04T05:07:25;100685.75;;;4.21;98.28
74578;BME280;63173;49.086;33.418;2022-11-04T05:09:51;100683.31;;;4.20;97.70
74578;BME280;63173;49.086;33.418;2022-11-04T05:12:16;100687.97;;;4.13;98.12
74578;BME280;63173;49.086;33.418;2022-11-04T05:14:42;100694.19;;;4.25;97.17
74578;BME280;63173;49.086;33.418;2022-11-04T05:17:07;100693.72;;;4.16;97.47
74578;BME280;63173;49.086;33.418;2022-11-04T05:19:33;100684.09;;;4.43;97.28
74578;BME280;63173;49.086;33.418;2022-11-04T05:21:58;100690.03;;;4.45;96.02
74578;BME280;63173;49.086;33.418;2022-11-04T05:24:24;100694.47;;;4.51;96.07
74578;BME280;63173;49.086;33.418;2022-11-04T05:26:49;100695.47;;;4.73;96.68
74578;BME280;63173;49.086;33.418;2022-11-04T05:29:15;100693.97;;;4.66;96.24
74578;BME280;63173;49.086;33.418;2022-11-04T05:31:40;100699.69;;;4.69;93.98
74578;BME280;63173;49.086;33.418;2022-11-04T05:34:08;100702.78;;;4.61;95.84
74578;BME280;63173;49.086;33.418;2022-11-04T05:36:34;100704.28;;;4.69;94.94
74578;BME280;63173;49.086;33.418;2022-11-04T05:38:59;100699.09;;;4.67;96.26
74578;BME280;63173;49.086;33.418;2022-11-04T05:41:25;100691.84;;;4.68;96.07
74578;BME280;63173;49.086;33.418;2022-11-04T05:43:52;100706.16;;;4.57;96.84
74578;BME280;63173;49.086;33.418;2022-11-04T05:46:18;100705.56;;;4.66;96.31
74578;BME280;63173;49.086;33.418;2022-11-04T05:48:43;100717.94;;;4.67;97.68
74578;BME280;63173;49.086;33.418;2022-11-04T05:51:12;100714.16;;;4.92;97.05
74578;BME280;63173;49.086;33.418;2022-11-04T05:53:39;100707.28;;;4.84;96.48
74578;BME280;63173;49.086;33.418;2022-11-04T05:56:05;100715.41;;;5.01;95.85
74578;BME280;63173;49.086;33.418;2022-11-04T05:58:30;100711.59;;;5.13;95.29
74578;BME280;63173;49.086;33.418;2022-11-04T06:01:31;100711.19;;;5.21;95.53
74578;BME280;63173;49.086;33.418;2022-11-04T06:03:55;100709.81;;;5.19;95.72
74578;BME280;63173;49.086;33.418;2022-11-04T06:06:23;100706.50;;;5.00;96.33
74578;BME280;63173;49.086;33.418;2022-11-04T06:08:49;100711.13;;;5.16;96.37
74578;BME280;63173;49.086;33.418;2022-11-04T06:11:15;100717.00;;;5.02;97.36
74578;BME280;63173;49.086;33.418;2022-11-04T06:13:41;100714.72;;;5.22;97.35
74578;BME280;63173;49.086;33.418;2022-11-04T06:16:06;100711.47;;;5.36;95.86
74578;BME280;63173;49.086;33.418;2022-11-04T06:18:32;100710.88;;;5.18;97.02
74578;BME280;63173;49.086;33.418;2022-11-04T06:23:41;100700.94;;;5.35;96.98
74578;BME280;63173;49.086;33.418;2022-11-04T06:26:07;100708.22;;;5.34;97.54
74578;BME280;63173;49.086;33.418;2022-11-04T08:46:09;100715.44;;;8.46;86.58
74578;BME280;63173;49.086;33.418;2022-11-04T08:48:37;100716.19;;;8.32;84.74
74578;BME280;63173;49.086;33.418;2022-11-04T08:51:04;100721.22;;;8.65;85.67
74578;BME280;63173;49.086;33.418;2022-11-04T08:53:30;100710.97;;;8.72;84.33
74578;BME280;63173;49.086;33.418;2022-11-04T08:55:55;100708.00;;;8.79;83.23
74578;BME280;63173;49.086;33.418;2022-11-04T08:58:21;100709.91;;;8.73;83.15
74578;BME280;63173;49.086;33.418;2022-11-04T09:00:48;100699.16;;;9.03;83.33
74578;BME280;63173;49.086;33.418;2022-11-04T09:03:14;100689.69;;;9.01;82.99
74578;BME280;63173;49.086;33.418;2022-11-04T09:05:40;100690.56;;;9.21;82.57
74578;BME280;63173;49.086;33.418;2022-11-04T09:08:14;100675.94;;;9.52;79.28
74578;BME280;63173;49.086;33.418;2022-11-04T09:10:45;100683.50;;;9.35;80.41
74578;BME280;63173;49.086;33.418;2022-11-04T09:13:11;100683.22;;;9.22;81.12
74578;BME280;63173;49.086;33.418;2022-11-04T09:15:37;100689.19;;;9.14;81.51
74578;BME280;63173;49.086;33.418;2022-11-04T09:18:03;100690.81;;;9.35;78.67
74578;BME280;63173;49.086;33.418;2022-11-04T09:20:28;100684.38;;;9.61;80.03
74578;BME280;63173;49.086;33.418;2022-11-04T09:22:55;100680.25;;;9.23;79.91
74578;BME280;63173;49.086;33.418;2022-11-04T09:25:20;100682.19;;;9.33;79.81
74578;BME280;63173;49.086;33.418;2022-11-04T09:27:46;100688.13;;;9.40;79.92
74578;BME280;63173;49.086;33.418;2022-11-04T09:30:11;100672.94;;;9.19;79.51
74578;BME280;63173;49.086;33.418;2022-11-04T09:32:37;100685.09;;;9.11;80.16
74578;BME280;63173;49.086;33.418;2022-11-04T09:35:03;100683.25;;;9.27;77.76
74578;BME280;63173;49.086;33.418;2022-11-04T09:37:29;100685.69;;;9.38;76.76
74578;BME280;63173;49.086;33.418;2022-11-04T09:39:54;100676.47;;;9.44;78.10
74578;BME280;63173;49.086;33.418;2022-11-04T09:45:12;100677.56;;;9.23;76.87
74578;BME280;63173;49.086;33.418;2022-11-04T09:47:41;100677.28;;;9.30;78.86
74578;BME280;63173;49.086;33.418;2022-11-04T09:50:17;100678.38;;;9.39;78.83
74578;BME280;63173;49.086;33.418;2022-11-04T09:53:00;100672.94;;;9.34;77.61
74578;BME280;63173;49.086;33.418;2022-11-04T09:55:31;100679.19;;;9.55;77.43
74578;BME280;63173;49.086;33.418;2022-11-04T09:57:59;100675.13;;;9.67;74.79
74578;BME280;63173;49.086;33.418;2022-11-04T10:00:25;100671.06;;;9.70;75.90
74578;BME280;63173;49.086;33.418;2022-11-04T10:03:36;100676.47;;;9.75;75.39
74578;BME280;63173;49.086;33.418;2022-11-04T10:19:39;100643.63;;;10.01;75.86
74578;BME280;63173;49.086;33.418;2022-11-04T10:22:25;100637.88;;;10.28;75.25
74578;BME280;63173;49.086;33.418;2022-11-04T10:24:57;100634.31;;;10.37;74.86
74578;BME280;63173;49.086;33.418;2022-11-04T10:27:29;100632.84;;;10.70;74.69
74578;BME280;63173;49.086;33.418;2022-11-04T10:30:03;100634.75;;;10.65;73.22
74578;BME280;63173;49.086;33.418;2022-11-04T10:33:20;100633.78;;;10.35;75.69
74578;BME280;63173;49.086;33.418;2022-11-04T10:35:30;100628.19;;;10.12;75.03
74578;BME280;63173;49.086;33.418;2022-11-04T10:38:00;100633.59;;;10.12;75.75
74578;BME280;63173;49.086;33.418;2022-11-04T10:40:36;100630.72;;;10.57;75.90
74578;BME280;63173;49.086;33.418;2022-11-04T10:43:08;100619.91;;;10.52;75.38
74578;BME280;63173;49.086;33.418;2022-11-04T10:45:48;100619.56;;;10.59;75.37
74578;BME280;63173;49.086;33.418;2022-11-04T10:48:24;100620.00;;;10.86;74.65
74578;BME280;63173;49.086;33.418;2022-11-04T10:50:54;100614.63;;;10.71;74.74
74578;BME280;63173;49.086;33.418;2022-11-04T10:53:28;100619.75;;;9.88;77.41
74578;BME280;63173;49.086;33.418;2022-11-04T10:58:41;100619.00;;;9.73;78.80
74578;BME280;63173;49.086;33.418;2022-11-04T11:03:55;100616.78;;;9.95;78.74
74578;BME280;63173;49.086;33.418;2022-11-04T11:06:31;100615.94;;;10.09;78.01
74578;BME280;63173;49.086;33.418;2022-11-04T11:09:00;100615.38;;;10.22;78.64
74578;BME280;63173;49.086;33.418;2022-11-04T11:16:52;100629.81;;;9.93;79.96
74578;BME280;63173;49.086;33.418;2022-11-04T11:19:23;100623.31;;;9.79;78.90
74578;BME280;63173;49.086;33.418;2022-11-04T11:21:54;100635.00;;;9.64;80.63
74578;BME280;63173;49.086;33.418;2022-11-04T11:24:25;100626.59;;;9.61;82.35
74578;BME280;63173;49.086;33.418;2022-11-04T11:27:02;100635.53;;;9.71;79.91
74578;BME280;63173;49.086;33.418;2022-11-04T11:29:35;100631.75;;;9.72;79.79
74578;BME280;63173;49.086;33.418;2022-11-04T11:32:05;100623.88;;;9.66;79.88
74578;BME280;63173;49.086;33.418;2022-11-04T11:34:36;100616.78;;;9.90;80.95
74578;BME280;63173;49.086;33.418;2022-11-04T11:37:02;100623.84;;;9.91;80.91
74578;BME280;63173;49.086;33.418;2022-11-04T11:39:32;100623.31;;;9.74;80.60
74578;BME280;63173;49.086;33.418;2022-11-04T11:42:02;100622.75;;;9.87;80.08
74578;BME280;63173;49.086;33.418;2022-11-04T11:44:33;100623.06;;;9.65;81.24
74578;BME280;63173;49.086;33.418;2022-11-04T11:47:12;100615.19;;;9.64;80.94
74578;BME280;63173;49.086;33.418;2022-11-04T11:49:43;100626.06;;;9.69;82.80
74578;BME280;63173;49.086;33.418;2022-11-04T11:52:26;100622.75;;;9.77;82.12
74578;BME280;63173;49.086;33.418;2022-11-04T11:57:50;100618.75;;;9.44;81.38
74578;BME280;63173;49.086;33.418;2022-11-04T12:00:18;100622.25;;;9.55;81.03
74578;BME280;63173;49.086;33.418;2022-11-04T12:02:57;100625.78;;;9.65;82.24
74578;BME280;63173;49.086;33.418;2022-11-04T12:05:44;100618.44;;;9.61;81.84
74578;BME280;63173;49.086;33.418;2022-11-04T12:13:44;100629.28;;;9.35;83.37
74578;BME280;63173;49.086;33.418;2022-11-04T12:16:36;100626.59;;;9.50;83.26
74578;BME280;63173;49.086;33.418;2022-11-04T12:24:41;100619.28;;;9.61;83.33
74578;BME280;63173;49.086;33.418;2022-11-04T14:26:46;100616.56;;;9.16;89.33
74578;BME280;63173;49.086;33.418;2022-11-04T14:29:22;100622.78;;;9.26;89.91
74578;BME280;63173;49.086;33.418;2022-11-04T14:31:51;100622.00;;;9.31;89.39
74578;BME280;63173;49.086;33.418;2022-11-04T14:34:31;100629.31;;;9.30;88.81
74578;BME280;63173;49.086;33.418;2022-11-04T14:37:01;100623.34;;;9.23;88.69
74578;BME280;63173;49.086;33.418;2022-11-04T14:39:32;100629.03;;;9.27;89.77
74578;BME280;63173;49.086;33.418;2022-11-04T14:42:02;100625.78;;;9.30;89.30
74578;BME280;63173;49.086;33.418;2022-11-04T14:44:43;100630.34;;;9.14;89.69
74578;BME280;63173;49.086;33.418;2022-11-04T14:47:23;100632.81;;;9.41;90.05
74578;BME280;63173;49.086;33.418;2022-11-04T14:52:25;100624.41;;;9.58;88.04
74578;BME280;63173;49.086;33.418;2022-11-04T14:54:56;100629.59;;;9.59;89.36
74578;BME280;63173;49.086;33.418;2022-11-04T14:57:23;100628.75;;;9.69;88.53
74578;BME280;63173;49.086;33.418;2022-11-04T14:59:49;100633.63;;;9.46;88.81
74578;BME280;63173;49.086;33.418;2022-11-04T15:02:28;100636.63;;;9.60;87.88
74578;BME280;63173;49.086;33.418;2022-11-04T15:05:00;100633.63;;;9.21;90.39
74578;BME280;63173;49.086;33.418;2022-11-04T15:07:34;100623.59;;;9.32;89.56
74578;BME280;63173;49.086;33.418;2022-11-04T15:10:13;100637.16;;;9.32;90.25
74578;BME280;63173;49.086;33.418;2022-11-04T15:12:43;100631.47;;;9.28;91.17
74578;BME280;63173;49.086;33.418;2022-11-04T15:15:34;100632.84;;;9.46;90.03
74578;BME280;63173;49.086;33.418;2022-11-04T15:18:12;100637.41;;;9.15;89.25
74578;BME280;63173;49.086;33.418;2022-11-04T15:20:50;100635.81;;;9.34;90.82
74578;BME280;63173;49.086;33.418;2022-11-04T15:25:53;100641.16;;;8.99;92.54
74578;BME280;63173;49.086;33.418;2022-11-04T15:28:28;100638.72;;;8.98;92.10
74578;BME280;63173;49.086;33.418;2022-11-04T15:33:25;100640.38;;;8.99;92.68
74578;BME280;63173;49.086;33.418;2022-11-04T15:35:52;100641.44;;;8.93;92.60
74578;BME280;63173;49.086;33.418;2022-11-04T15:38:18;100647.91;;;8.87;92.10
74578;BME280;63173;49.086;33.418;2022-11-04T15:40:44;100645.75;;;8.89;93.15
74578;BME280;63173;49.086;33.418;2022-11-04T15:43:10;100648.72;;;8.82;93.12
74578;BME280;63173;49.086;33.418;2022-11-04T15:45:49;100651.19;;;8.89;91.91
74578;BME280;63173;49.086;33.418;2022-11-04T15:48:31;100652.25;;;8.88;92.03
74578;BME280;63173;49.086;33.418;2022-11-04T15:51:12;100649.53;;;8.88;91.79
74578;BME280;63173;49.086;33.418;2022-11-04T15:53:55;100636.84;;;8.98;91.51
74578;BME280;63173;49.086;33.418;2022-11-04T15:56:33;100650.59;;;8.77;93.16
74578;BME280;63173;49.086;33.418;2022-11-04T15:59:00;100656.53;;;8.74;93.55
74578;BME280;63173;49.086;33.418;2022-11-04T16:01:27;100654.13;;;8.77;92.44
74578;BME280;63173;49.086;33.418;2022-11-04T16:03:55;100651.13;;;8.79;92.90
74578;BME280;63173;49.086;33.418;2022-11-04T16:06:31;100659.81;;;8.86;92.53
74578;BME280;63173;49.086;33.418;2022-11-04T16:09:05;100651.19;;;8.89;92.80
74578;BME280;63173;49.086;33.418;2022-11-04T16:11:32;100652.28;;;8.98;90.96
74578;BME280;63173;49.086;33.418;2022-11-04T16:14:20;100660.91;;;8.90;92.26
74578;BME280;63173;49.086;33.418;2022-11-04T16:16:48;100658.97;;;8.70;92.98
74578;BME280;63173;49.086;33.418;2022-11-04T16:19:19;100663.38;;;8.91;92.33
74578;BME280;63173;49.086;33.418;2022-11-04T16:21:46;100665.50;;;8.74;93.04
74578;BME280;63173;49.086;33.418;2022-11-04T16:24:28;100669.03;;;8.80;93.48
74578;BME280;63173;49.086;33.418;2022-11-04T16:26:55;100664.94;;;8.72;93.47
74578;BME280;63173;49.086;33.418;2022-11-04T16:29:25;100664.72;;;8.89;92.78
74578;BME280;63173;49.086;33.418;2022-11-04T16:34:44;100659.31;;;8.84;93.78
74578;BME280;63173;49.086;33.418;2022-11-04T16:37:10;100658.72;;;8.72;94.18
74578;BME280;63173;49.086;33.418;2022-11-04T16:39:35;100663.56;;;8.70;94.58
74578;BME280;63173;49.086;33.418;2022-11-04T16:42:03;100668.72;;;8.71;94.45
74578;BME280;63173;49.086;33.418;2022-11-04T16:44:29;100661.97;;;8.69;93.62
74578;BME280;63173;49.086;33.418;2022-11-04T16:46:56;100661.16;;;8.73;94.18
74578;BME280;63173;49.086;33.418;2022-11-04T16:49:22;100662.47;;;8.71;94.57
74578;BME280;63173;49.086;33.418;2022-11-04T16:51:52;100664.69;;;8.79;93.55
74578;BME280;63173;49.086;33.418;2022-11-04T16:54:18;100664.13;;;8.72;94.64
74578;BME280;63173;49.086;33.418;2022-11-04T16:56:44;100660.31;;;8.63;94.12
74578;BME280;63173;49.086;33.418;2022-11-04T16:59:12;100659.25;;;8.69;93.44
74578;BME280;63173;49.086;33.418;2022-11-04T17:01:38;100665.19;;;8.66;93.67
74578;BME280;63173;49.086;33.418;2022-11-04T17:04:05;100659.47;;;8.57;94.97
74578;BME280;63173;49.086;33.418;2022-11-04T17:06:31;100656.94;;;8.40;94.81
74578;BME280;63173;49.086;33.418;2022-11-04T17:08:57;100653.44;;;8.45;96.81
74578;BME280;63173;49.086;33.418;2022-11-04T17:11:22;100659.97;;;8.49;95.34
74578;BME280;63173;49.086;33.418;2022-11-04T17:13:48;100654.84;;;8.57;95.54
74578;BME280;63173;49.086;33.418;2022-11-04T17:16:13;100651.53;;;8.40;96.71
74578;BME280;63173;49.086;33.418;2022-11-04T17:18:39;100659.97;;;8.44;96.09
74578;BME280;63173;49.086;33.418;2022-11-04T17:21:07;100658.66;;;8.57;95.32
74578;BME280;63173;49.086;33.418;2022-11-04T17:23:33;100657.84;;;8.61;95.20
74578;BME280;63173;49.086;33.418;2022-11-04T17:25:59;100649.50;;;8.73;95.74
74578;BME280;63173;49.086;33.418;2022-11-04T17:28:24;100652.69;;;8.54;95.20
74578;BME280;63173;49.086;33.418;2022-11-04T17:30:51;100654.28;;;8.50;96.24
74578;BME280;63173;49.086;33.418;2022-11-04T17:33:17;100658.88;;;8.45;94.99
74578;BME280;63173;49.086;33.418;2022-11-04T17:35:45;100651.84;;;8.44;95.92
74578;BME280;63173;49.086;33.418;2022-11-04T17:39:47;100645.81;;;8.32;96.29
74578;BME280;63173;49.086;33.418;2022-11-04T17:42:12;100656.44;;;8.43;97.45
74578;BME280;63173;49.086;33.418;2022-11-04T17:44:56;100655.59;;;8.38;96.92
74578;BME280;63173;49.086;33.418;2022-11-04T17:47:21;100657.75;;;8.41;96.78
74578;BME280;63173;49.086;33.418;2022-11-04T17:49:46;100671.50;;;8.29;97.51
74578;BME280;63173;49.086;33.418;2022-11-04T17:52:12;100675.75;;;8.20;97.70
74578;BME280;63173;49.086;33.418;2022-11-04T17:54:37;100670.06;;;8.17;98.12
74578;BME280;63173;49.086;33.418;2022-11-04T17:57:03;100670.91;;;8.22;97.52
74578;BME280;63173;49.086;33.418;2022-11-04T17:59:29;100672.50;;;8.23;97.43
74578;BME280;63173;49.086;33.418;2022-11-04T18:01:54;100667.91;;;8.24;96.57
74578;BME280;63173;49.086;33.418;2022-11-04T20:19:38;100720.84;;;7.73;100.00
74578;BME280;63173;49.086;33.418;2022-11-04T20:22:04;100715.41;;;7.68;100.00
74578;BME280;63173;49.086;33.418;2022-11-04T20:24:29;100708.09;;;7.69;99.69
74578;BME280;63173;49.086;33.418;2022-11-04T20:26:55;100717.97;;;7.85;100.00
74578;BME280;63173;49.086;33.418;2022-11-04T20:29:21;100714.31;;;7.69;99.03
74578;BME280;63173;49.086;33.418;2022-11-04T20:31:46;100719.75;;;7.69;99.68
74578;BME280;63173;49.086;33.418;2022-11-04T20:34:12;100717.38;;;7.78;99.23
74578;BME280;63173;49.086;33.418;2022-11-04T20:36:39;100712.47;;;7.75;99.23
74578;BME280;63173;49.086;33.418;2022-11-04T20:39:07;100723.38;;;7.85;99.08
74578;BME280;63173;49.086;33.418;2022-11-04T20:41:33;100717.88;;;7.75;97.98
74578;BME280;63173;49.086;33.418;2022-11-04T20:43:59;100718.16;;;7.73;98.85
74578;BME280;63173;49.086;33.418;2022-11-04T20:46:26;100715.16;;;7.70;98.47
74578;BME280;63173;49.086;33.418;2022-11-04T20:48:53;100717.72;;;7.86;99.03
74578;BME280;63173;49.086;33.418;2022-11-04T20:51:28;100713.91;;;7.82;98.20
74578;BME280;63173;49.086;33.418;2022-11-04T20:53:55;100715.56;;;7.88;97.84
74578;BME280;63173;49.086;33.418;2022-11-04T20:56:26;100704.50;;;7.90;97.20
74578;BME280;63173;49.086;33.418;2022-11-04T20:58:52;100705.91;;;7.66;97.57
74578;BME280;63173;49.086;33.418;2022-11-04T21:01:21;100704.63;;;7.73;98.14
74578;BME280;63173;49.086;33.418;2022-11-04T21:06:19;100715.03;;;7.91;97.09
74578;BME280;63173;49.086;33.418;2022-11-04T21:08:47;100711.56;;;7.96;96.51
74578;BME280;63173;49.086;33.418;2022-11-04T21:11:13;100715.38;;;7.95;95.89
74578;BME280;63173;49.086;33.418;2022-11-04T21:13:41;100703.63;;;7.84;97.02
74578;BME280;63173;49.086;33.418;2022-11-04T21:16:07;100710.81;;;8.00;97.03
74578;BME280;63173;49.086;33.418;2022-11-04T21:18:33;100722.41;;;8.01;96.69
74578;BME280;63173;49.086;33.418;2022-11-04T21:21:05;100718.38;;;7.98;95.40
74578;BME280;63173;49.086;33.418;2022-11-04T21:23:31;100721.53;;;7.90;95.53
74578;BME280;63173;49.086;33.418;2022-11-04T21:26:03;100716.41;;;7.94;96.05
74578;BME280;63173;49.086;33.418;2022-11-04T21:28:28;100719.69;;;7.96;96.58
74578;BME280;63173;49.086;33.418;2022-11-04T21:30:54;100715.75;;;7.77;96.18
74578;BME280;63173;49.086;33.418;2022-11-04T21:33:20;100724.16;;;7.80;96.73
74578;BME280;63173;49.086;33.418;2022-11-04T21:35:46;100730.81;;;7.68;96.30
74578;BME280;63173;49.086;33.418;2022-11-04T21:38:15;100720.56;;;7.70;96.82
74578;BME280;63173;49.086;33.418;2022-11-04T21:40:42;100729.44;;;7.65;97.94
74578;BME280;63173;49.086;33.418;2022-11-04T21:43:09;100729.50;;;7.70;98.22
74578;BME280;63173;49.086;33.418;2022-11-04T21:45:34;100735.47;;;7.72;98.16
74578;BME280;63173;49.086;33.418;2022-11-04T21:48:00;100731.88;;;7.67;98.03
74578;BME280;63173;49.086;33.418;2022-11-04T21:50:26;100728.94;;;7.68;97.98
74578;BME280;63173;49.086;33.418;2022-11-04T21:52:52;100732.09;;;7.60;97.48
74578;BME280;63173;49.086;33.418;2022-11-04T21:55:17;100732.69;;;7.67;96.70
74578;BME280;63173;49.086;33.418;2022-11-04T21:57:43;100726.09;;;7.53;97.97
74578;BME280;63173;49.086;33.418;2022-11-04T22:00:10;100728.53;;;7.54;97.66
74578;BME280;63173;49.086;33.418;2022-11-04T22:02:39;100735.78;;;7.49;98.42
74578;BME280;63173;49.086;33.418;2022-11-04T22:05:12;100736.13;;;7.57;98.09
74578;BME280;63173;49.086;33.418;2022-11-04T22:07:38;100733.72;;;7.61;97.26
74578;BME280;63173;49.086;33.418;2022-11-04T22:10:23;100735.78;;;7.49;97.05
74578;BME280;63173;49.086;33.418;2022-11-04T22:12:49;100724.88;;;7.39;97.80
74578;BME280;63173;49.086;33.418;2022-11-04T22:15:14;100725.16;;;7.42;98.19
74578;BME280;63173;49.086;33.418;2022-11-04T22:18:00;100726.03;;;7.48;97.97
74578;BME280;63173;49.086;33.418;2022-11-04T22:20:26;100721.34;;;7.38;97.57
74578;BME280;63173;49.086;33.418;2022-11-04T22:22:51;100716.66;;;7.29;97.26
74578;BME280;63173;49.086;33.418;2022-11-04T22:25:17;100718.56;;;7.28;97.11
74578;BME280;63173;49.086;33.418;2022-11-04T22:27:42;100725.63;;;7.34;97.77
74578;BME280;63173;49.086;33.418;2022-11-04T22:30:08;100715.63;;;7.35;97.65
74578;BME280;63173;49.086;33.418;2022-11-04T22:32:34;100715.38;;;7.36;98.00
74578;BME280;63173;49.086;33.418;2022-11-04T22:34:59;100716.78;;;7.44;98.08
74578;BME280;63173;49.086;33.418;2022-11-04T22:37:24;100730.13;;;7.50;98.73
74578;BME280;63173;49.086;33.418;2022-11-04T22:39:50;100720.16;;;7.29;98.45
74578;BME280;63173;49.086;33.418;2022-11-04T22:42:15;100720.06;;;7.19;99.13
74578;BME280;63173;49.086;33.418;2022-11-04T22:44:41;100722.53;;;7.21;99.11
74578;BME280;63173;49.086;33.418;2022-11-04T22:47:06;100720.88;;;7.20;99.26
74578;BME280;63173;49.086;33.418;2022-11-04T22:49:32;100723.00;;;7.18;99.01
74578;BME280;63173;49.086;33.418;2022-11-04T22:51:57;100725.09;;;7.11;99.14
74578;BME280;63173;49.086;33.418;2022-11-04T22:54:22;100728.31;;;7.08;99.48
74578;BME280;63173;49.086;33.418;2022-11-04T22:56:48;100730.81;;;7.14;98.57
74578;BME280;63173;49.086;33.418;2022-11-04T22:59:14;100729.38;;;7.07;99.10
74578;BME280;63173;49.086;33.418;2022-11-04T23:01:39;100721.47;;;7.00;98.76
74578;BME280;63173;49.086;33.418;2022-11-04T23:04:05;100733.25;;;7.16;99.01
74578;BME280;63173;49.086;33.418;2022-11-04T23:06:31;100732.66;;;7.09;98.70
74578;BME280;63173;49.086;33.418;2022-11-04T23:08:57;100729.25;;;6.97;98.80
74578;BME280;63173;49.086;33.418;2022-11-04T23:11:24;100727.47;;;6.81;99.84
74578;BME280;63173;49.086;33.418;2022-11-04T23:14:13;100726.16;;;6.83;99.96
74578;BME280;63173;49.086;33.418;2022-11-04T23:16:57;100726.31;;;6.98;100.00
74578;BME280;63173;49.086;33.418;2022-11-04T23:19:42;100722.59;;;7.04;99.50
74578;BME280;63173;49.086;33.418;2022-11-04T23:22:08;100724.81;;;7.07;99.29
74578;BME280;63173;49.086;33.418;2022-11-04T23:24:53;100715.50;;;7.25;99.54
74578;BME280;63173;49.086;33.418;2022-11-04T23:27:32;100731.28;;;7.33;98.70